sensor_id;sensor_type;location;lat;lon;timestamp;P1;durP1;ratioP1;P2;durP2;ratioP2
43837;SDS011;65998;46.256;7.534;2023-05-07T00:00:38;119.20;;;50.35;;
43837;SDS011;65998;46.256;7.534;2023-05-07T00:03:19;107.23;;;45.13;;
43837;SDS011;65998;46.256;7.534;2023-05-07T00:05:45;111.22;;;45.25;;
43837;SDS011;65998;46.256;7.534;2023-05-07T00:08:11;116.82;;;47.72;;
43837;SDS011;65998;46.256;7.534;2023-05-07T00:10:37;107.13;;;45.73;;
43837;SDS011;65998;46.256;7.534;2023-05-07T00:13:03;101.80;;;41.20;;
43837;SDS011;65998;46.256;7.534;2023-05-07T00:15:29;101.97;;;43.45;;
43837;SDS011;65998;46.256;7.534;2023-05-07T00:17:55;104.87;;;43.70;;
43837;SDS011;65998;46.256;7.534;2023-05-07T00:20:21;99.03;;;42.05;;
43837;SDS011;65998;46.256;7.534;2023-05-07T00:22:46;94.73;;;40.10;;
43837;SDS011;65998;46.256;7.534;2023-05-07T00:25:12;98.97;;;41.78;;
43837;SDS011;65998;46.256;7.534;2023-05-07T00:27:38;107.50;;;43.80;;
43837;SDS011;65998;46.256;7.534;2023-05-07T00:30:04;102.50;;;41.40;;
43837;SDS011;65998;46.256;7.534;2023-05-07T00:32:30;101.28;;;43.78;;
43837;SDS011;65998;46.256;7.534;2023-05-07T00:34:56;101.60;;;42.53;;
43837;SDS011;65998;46.256;7.534;2023-05-07T00:37:22;102.87;;;42.47;;
43837;SDS011;65998;46.256;7.534;2023-05-07T00:39:48;95.20;;;40.80;;
43837;SDS011;65998;46.256;7.534;2023-05-07T00:42:13;91.00;;;38.37;;
43837;SDS011;65998;46.256;7.534;2023-05-07T00:44:39;89.63;;;37.35;;
43837;SDS011;65998;46.256;7.534;2023-05-07T00:47:05;95.00;;;39.33;;
43837;SDS011;65998;46.256;7.534;2023-05-07T00:49:38;83.50;;;36.10;;
43837;SDS011;65998;46.256;7.534;2023-05-07T00:52:09;91.18;;;37.78;;
43837;SDS011;65998;46.256;7.534;2023-05-07T00:54:36;78.38;;;33.85;;
43837;SDS011;65998;46.256;7.534;2023-05-07T00:57:03;82.00;;;33.45;;
43837;SDS011;65998;46.256;7.534;2023-05-07T00:59:29;77.57;;;32.67;;
43837;SDS011;65998;46.256;7.534;2023-05-07T01:01:57;77.60;;;31.25;;
43837;SDS011;65998;46.256;7.534;2023-05-07T01:04:22;81.25;;;33.92;;
43837;SDS011;65998;46.256;7.534;2023-05-07T01:06:49;70.30;;;29.33;;
43837;SDS011;65998;46.256;7.534;2023-05-07T01:09:15;70.45;;;28.88;;
43837;SDS011;65998;46.256;7.534;2023-05-07T01:11:42;74.50;;;31.67;;
43837;SDS011;65998;46.256;7.534;2023-05-07T01:14:09;73.45;;;31.27;;
43837;SDS011;65998;46.256;7.534;2023-05-07T01:16:36;73.93;;;31.60;;
43837;SDS011;65998;46.256;7.534;2023-05-07T01:19:02;73.50;;;30.67;;
43837;SDS011;65998;46.256;7.534;2023-05-07T01:21:28;70.47;;;29.58;;
43837;SDS011;65998;46.256;7.534;2023-05-07T01:23:58;70.15;;;30.75;;
43837;SDS011;65998;46.256;7.534;2023-05-07T01:26:24;68.32;;;28.55;;
43837;SDS011;65998;46.256;7.534;2023-05-07T01:28:50;66.90;;;28.37;;
43837;SDS011;65998;46.256;7.534;2023-05-07T01:31:16;66.88;;;28.10;;
43837;SDS011;65998;46.256;7.534;2023-05-07T01:33:42;61.97;;;26.42;;
43837;SDS011;65998;46.256;7.534;2023-05-07T01:36:11;61.95;;;26.15;;
43837;SDS011;65998;46.256;7.534;2023-05-07T01:38:38;62.97;;;25.77;;
43837;SDS011;65998;46.256;7.534;2023-05-07T01:41:06;61.53;;;26.08;;
43837;SDS011;65998;46.256;7.534;2023-05-07T01:43:32;56.63;;;23.73;;
43837;SDS011;65998;46.256;7.534;2023-05-07T01:45:59;59.72;;;24.52;;
43837;SDS011;65998;46.256;7.534;2023-05-07T01:48:26;62.42;;;25.80;;
43837;SDS011;65998;46.256;7.534;2023-05-07T01:50:53;58.60;;;24.52;;
43837;SDS011;65998;46.256;7.534;2023-05-07T01:53:20;61.63;;;25.13;;
43837;SDS011;65998;46.256;7.534;2023-05-07T01:55:46;53.47;;;23.35;;
43837;SDS011;65998;46.256;7.534;2023-05-07T01:58:12;54.33;;;23.50;;
43837;SDS011;65998;46.256;7.534;2023-05-07T02:00:38;54.10;;;22.77;;
43837;SDS011;65998;46.256;7.534;2023-05-07T02:03:03;53.23;;;22.53;;
43837;SDS011;65998;46.256;7.534;2023-05-07T02:05:29;54.30;;;22.88;;
43837;SDS011;65998;46.256;7.534;2023-05-07T02:07:55;56.20;;;24.10;;
43837;SDS011;65998;46.256;7.534;2023-05-07T02:10:21;50.97;;;22.63;;
43837;SDS011;65998;46.256;7.534;2023-05-07T02:12:46;50.22;;;21.55;;
43837;SDS011;65998;46.256;7.534;2023-05-07T02:15:12;48.73;;;21.93;;
43837;SDS011;65998;46.256;7.534;2023-05-07T02:17:39;50.28;;;21.15;;
43837;SDS011;65998;46.256;7.534;2023-05-07T02:20:24;47.33;;;20.60;;
43837;SDS011;65998;46.256;7.534;2023-05-07T02:22:50;49.13;;;20.30;;
43837;SDS011;65998;46.256;7.534;2023-05-07T02:25:16;45.40;;;19.42;;
43837;SDS011;65998;46.256;7.534;2023-05-07T02:27:42;46.13;;;19.37;;
43837;SDS011;65998;46.256;7.534;2023-05-07T02:30:08;45.15;;;18.20;;
43837;SDS011;65998;46.256;7.534;2023-05-07T02:32:34;41.72;;;18.15;;
43837;SDS011;65998;46.256;7.534;2023-05-07T02:34:59;43.25;;;18.45;;
43837;SDS011;65998;46.256;7.534;2023-05-07T02:37:25;46.63;;;18.35;;
43837;SDS011;65998;46.256;7.534;2023-05-07T02:39:51;39.90;;;18.73;;
43837;SDS011;65998;46.256;7.534;2023-05-07T02:42:17;44.97;;;17.50;;
43837;SDS011;65998;46.256;7.534;2023-05-07T02:44:42;41.65;;;17.10;;
43837;SDS011;65998;46.256;7.534;2023-05-07T02:47:08;39.60;;;17.70;;
43837;SDS011;65998;46.256;7.534;2023-05-07T02:49:34;39.22;;;16.73;;
43837;SDS011;65998;46.256;7.534;2023-05-07T02:52:00;34.73;;;15.53;;
43837;SDS011;65998;46.256;7.534;2023-05-07T02:54:26;37.13;;;16.45;;
43837;SDS011;65998;46.256;7.534;2023-05-07T02:56:51;36.43;;;16.47;;
43837;SDS011;65998;46.256;7.534;2023-05-07T02:59:17;38.20;;;16.58;;
43837;SDS011;65998;46.256;7.534;2023-05-07T03:01:43;35.42;;;16.13;;
43837;SDS011;65998;46.256;7.534;2023-05-07T03:04:09;33.20;;;15.40;;
43837;SDS011;65998;46.256;7.534;2023-05-07T03:06:35;36.63;;;15.77;;
43837;SDS011;65998;46.256;7.534;2023-05-07T03:09:02;33.95;;;15.05;;
43837;SDS011;65998;46.256;7.534;2023-05-07T03:11:28;34.08;;;15.02;;
43837;SDS011;65998;46.256;7.534;2023-05-07T03:13:54;32.00;;;14.32;;
43837;SDS011;65998;46.256;7.534;2023-05-07T03:16:19;32.42;;;14.27;;
43837;SDS011;65998;46.256;7.534;2023-05-07T03:18:45;29.20;;;13.30;;
43837;SDS011;65998;46.256;7.534;2023-05-07T03:21:11;28.50;;;12.60;;
43837;SDS011;65998;46.256;7.534;2023-05-07T03:23:37;31.15;;;13.30;;
43837;SDS011;65998;46.256;7.534;2023-05-07T03:26:03;30.23;;;13.47;;
43837;SDS011;65998;46.256;7.534;2023-05-07T03:28:29;27.17;;;11.88;;
43837;SDS011;65998;46.256;7.534;2023-05-07T03:30:54;30.13;;;12.48;;
43837;SDS011;65998;46.256;7.534;2023-05-07T03:33:20;28.70;;;11.77;;
43837;SDS011;65998;46.256;7.534;2023-05-07T03:35:46;26.58;;;11.35;;
43837;SDS011;65998;46.256;7.534;2023-05-07T03:38:12;26.10;;;11.35;;
43837;SDS011;65998;46.256;7.534;2023-05-07T03:40:37;26.88;;;11.52;;
43837;SDS011;65998;46.256;7.534;2023-05-07T03:43:03;28.75;;;11.65;;
43837;SDS011;65998;46.256;7.534;2023-05-07T03:45:29;26.20;;;11.83;;
43837;SDS011;65998;46.256;7.534;2023-05-07T03:47:55;27.23;;;11.93;;
43837;SDS011;65998;46.256;7.534;2023-05-07T03:50:21;25.73;;;11.07;;
43837;SDS011;65998;46.256;7.534;2023-05-07T03:52:47;24.27;;;11.35;;
43837;SDS011;65998;46.256;7.534;2023-05-07T03:55:12;23.50;;;10.27;;
43837;SDS011;65998;46.256;7.534;2023-05-07T03:57:38;26.08;;;11.55;;
43837;SDS011;65998;46.256;7.534;2023-05-07T04:00:04;24.80;;;11.07;;
43837;SDS011;65998;46.256;7.534;2023-05-07T04:02:31;25.00;;;10.18;;
43837;SDS011;65998;46.256;7.534;2023-05-07T04:04:57;27.13;;;10.70;;
43837;SDS011;65998;46.256;7.534;2023-05-07T04:07:23;24.60;;;11.18;;
43837;SDS011;65998;46.256;7.534;2023-05-07T04:09:49;23.03;;;10.50;;
43837;SDS011;65998;46.256;7.534;2023-05-07T04:12:15;22.40;;;10.25;;
43837;SDS011;65998;46.256;7.534;2023-05-07T04:14:40;22.52;;;10.20;;
43837;SDS011;65998;46.256;7.534;2023-05-07T04:17:06;20.92;;;9.65;;
43837;SDS011;65998;46.256;7.534;2023-05-07T04:19:33;22.67;;;10.23;;
43837;SDS011;65998;46.256;7.534;2023-05-07T04:21:59;21.67;;;10.27;;
43837;SDS011;65998;46.256;7.534;2023-05-07T04:24:25;23.53;;;10.33;;
43837;SDS011;65998;46.256;7.534;2023-05-07T04:26:50;22.33;;;10.35;;
43837;SDS011;65998;46.256;7.534;2023-05-07T04:29:16;22.00;;;9.40;;
43837;SDS011;65998;46.256;7.534;2023-05-07T04:31:42;21.90;;;9.93;;
43837;SDS011;65998;46.256;7.534;2023-05-07T04:34:08;22.07;;;9.53;;
43837;SDS011;65998;46.256;7.534;2023-05-07T04:36:34;20.10;;;8.88;;
43837;SDS011;65998;46.256;7.534;2023-05-07T04:38:59;21.37;;;9.30;;
43837;SDS011;65998;46.256;7.534;2023-05-07T04:41:25;21.15;;;8.90;;
43837;SDS011;65998;46.256;7.534;2023-05-07T04:43:51;18.33;;;8.30;;
43837;SDS011;65998;46.256;7.534;2023-05-07T04:46:17;18.07;;;7.90;;
43837;SDS011;65998;46.256;7.534;2023-05-07T04:48:42;16.98;;;7.97;;
43837;SDS011;65998;46.256;7.534;2023-05-07T04:51:08;20.38;;;8.70;;
43837;SDS011;65998;46.256;7.534;2023-05-07T04:53:34;19.93;;;7.87;;
43837;SDS011;65998;46.256;7.534;2023-05-07T04:56:00;18.42;;;7.43;;
43837;SDS011;65998;46.256;7.534;2023-05-07T04:58:26;16.63;;;7.10;;
43837;SDS011;65998;46.256;7.534;2023-05-07T05:00:52;19.00;;;8.05;;
43837;SDS011;65998;46.256;7.534;2023-05-07T05:03:18;17.98;;;7.60;;
43837;SDS011;65998;46.256;7.534;2023-05-07T05:05:44;17.77;;;7.63;;
43837;SDS011;65998;46.256;7.534;2023-05-07T05:08:09;15.65;;;7.20;;
43837;SDS011;65998;46.256;7.534;2023-05-07T05:10:35;17.63;;;7.32;;
43837;SDS011;65998;46.256;7.534;2023-05-07T05:13:01;16.60;;;7.50;;
43837;SDS011;65998;46.256;7.534;2023-05-07T05:15:27;15.70;;;7.20;;
43837;SDS011;65998;46.256;7.534;2023-05-07T05:17:53;15.73;;;7.17;;
43837;SDS011;65998;46.256;7.534;2023-05-07T05:20:19;15.30;;;7.45;;
43837;SDS011;65998;46.256;7.534;2023-05-07T05:22:44;16.10;;;6.97;;
43837;SDS011;65998;46.256;7.534;2023-05-07T05:25:10;15.90;;;7.13;;
43837;SDS011;65998;46.256;7.534;2023-05-07T05:27:36;16.43;;;7.20;;
43837;SDS011;65998;46.256;7.534;2023-05-07T05:30:03;16.95;;;6.97;;
43837;SDS011;65998;46.256;7.534;2023-05-07T05:32:29;15.65;;;7.03;;
43837;SDS011;65998;46.256;7.534;2023-05-07T05:34:55;16.00;;;6.88;;
43837;SDS011;65998;46.256;7.534;2023-05-07T05:37:20;15.90;;;6.40;;
43837;SDS011;65998;46.256;7.534;2023-05-07T05:39:46;16.30;;;6.70;;
43837;SDS011;65998;46.256;7.534;2023-05-07T05:42:12;15.60;;;6.63;;
43837;SDS011;65998;46.256;7.534;2023-05-07T05:44:38;12.65;;;6.25;;
43837;SDS011;65998;46.256;7.534;2023-05-07T05:47:03;15.47;;;6.83;;
43837;SDS011;65998;46.256;7.534;2023-05-07T05:49:30;14.68;;;6.10;;
43837;SDS011;65998;46.256;7.534;2023-05-07T05:51:55;14.90;;;6.07;;
43837;SDS011;65998;46.256;7.534;2023-05-07T05:54:21;14.48;;;6.50;;
43837;SDS011;65998;46.256;7.534;2023-05-07T05:56:47;13.13;;;5.68;;
43837;SDS011;65998;46.256;7.534;2023-05-07T05:59:14;13.40;;;5.68;;
43837;SDS011;65998;46.256;7.534;2023-05-07T06:01:39;13.03;;;5.50;;
43837;SDS011;65998;46.256;7.534;2023-05-07T06:04:06;13.27;;;5.97;;
43837;SDS011;65998;46.256;7.534;2023-05-07T06:06:31;13.30;;;5.30;;
43837;SDS011;65998;46.256;7.534;2023-05-07T06:08:57;13.45;;;5.82;;
43837;SDS011;65998;46.256;7.534;2023-05-07T06:11:23;11.95;;;5.60;;
43837;SDS011;65998;46.256;7.534;2023-05-07T06:13:49;13.70;;;6.13;;
43837;SDS011;65998;46.256;7.534;2023-05-07T06:16:14;14.43;;;5.47;;
43837;SDS011;65998;46.256;7.534;2023-05-07T06:18:40;12.73;;;5.47;;
43837;SDS011;65998;46.256;7.534;2023-05-07T06:21:06;12.25;;;4.80;;
43837;SDS011;65998;46.256;7.534;2023-05-07T06:23:32;11.18;;;4.97;;
43837;SDS011;65998;46.256;7.534;2023-05-07T06:25:57;11.73;;;4.72;;
43837;SDS011;65998;46.256;7.534;2023-05-07T06:28:24;11.48;;;4.68;;
43837;SDS011;65998;46.256;7.534;2023-05-07T06:30:49;9.13;;;4.83;;
43837;SDS011;65998;46.256;7.534;2023-05-07T06:33:15;11.57;;;4.90;;
43837;SDS011;65998;46.256;7.534;2023-05-07T06:35:41;10.18;;;5.03;;
43837;SDS011;65998;46.256;7.534;2023-05-07T06:38:07;11.40;;;5.28;;
43837;SDS011;65998;46.256;7.534;2023-05-07T06:40:33;11.88;;;5.18;;
43837;SDS011;65998;46.256;7.534;2023-05-07T06:42:59;11.77;;;5.17;;
43837;SDS011;65998;46.256;7.534;2023-05-07T06:45:24;12.70;;;4.93;;
43837;SDS011;65998;46.256;7.534;2023-05-07T06:47:50;11.95;;;4.65;;
43837;SDS011;65998;46.256;7.534;2023-05-07T06:50:16;10.88;;;4.93;;
43837;SDS011;65998;46.256;7.534;2023-05-07T06:52:42;9.68;;;4.18;;
43837;SDS011;65998;46.256;7.534;2023-05-07T06:55:08;11.48;;;5.20;;
43837;SDS011;65998;46.256;7.534;2023-05-07T06:57:34;10.90;;;4.18;;
43837;SDS011;65998;46.256;7.534;2023-05-07T07:00:00;9.77;;;4.28;;
43837;SDS011;65998;46.256;7.534;2023-05-07T07:02:26;9.75;;;4.22;;
43837;SDS011;65998;46.256;7.534;2023-05-07T07:04:52;9.15;;;4.30;;
43837;SDS011;65998;46.256;7.534;2023-05-07T07:07:18;11.27;;;4.40;;
43837;SDS011;65998;46.256;7.534;2023-05-07T07:09:43;9.20;;;3.77;;
43837;SDS011;65998;46.256;7.534;2023-05-07T07:12:09;8.95;;;4.00;;
43837;SDS011;65998;46.256;7.534;2023-05-07T07:14:35;10.17;;;4.17;;
43837;SDS011;65998;46.256;7.534;2023-05-07T07:17:01;11.02;;;4.20;;
43837;SDS011;65998;46.256;7.534;2023-05-07T07:19:26;10.50;;;4.13;;
43837;SDS011;65998;46.256;7.534;2023-05-07T07:21:52;9.23;;;3.95;;
43837;SDS011;65998;46.256;7.534;2023-05-07T07:24:18;8.27;;;3.97;;
43837;SDS011;65998;46.256;7.534;2023-05-07T07:26:44;9.10;;;3.83;;
43837;SDS011;65998;46.256;7.534;2023-05-07T07:29:10;8.68;;;4.03;;
43837;SDS011;65998;46.256;7.534;2023-05-07T07:31:36;9.10;;;4.10;;
43837;SDS011;65998;46.256;7.534;2023-05-07T07:34:02;10.10;;;4.17;;
43837;SDS011;65998;46.256;7.534;2023-05-07T07:36:28;10.15;;;4.25;;
43837;SDS011;65998;46.256;7.534;2023-05-07T07:38:53;9.17;;;3.60;;
43837;SDS011;65998;46.256;7.534;2023-05-07T07:41:20;8.48;;;3.97;;
43837;SDS011;65998;46.256;7.534;2023-05-07T07:43:45;9.63;;;3.90;;
43837;SDS011;65998;46.256;7.534;2023-05-07T07:46:11;8.37;;;3.77;;
43837;SDS011;65998;46.256;7.534;2023-05-07T07:48:37;8.95;;;3.95;;
43837;SDS011;65998;46.256;7.534;2023-05-07T07:51:03;9.55;;;3.85;;
43837;SDS011;65998;46.256;7.534;2023-05-07T07:53:29;9.30;;;3.78;;
43837;SDS011;65998;46.256;7.534;2023-05-07T07:55:55;10.00;;;3.70;;
43837;SDS011;65998;46.256;7.534;2023-05-07T07:58:21;8.05;;;3.35;;
43837;SDS011;65998;46.256;7.534;2023-05-07T08:00:47;7.55;;;3.20;;
43837;SDS011;65998;46.256;7.534;2023-05-07T08:03:13;8.15;;;3.50;;
43837;SDS011;65998;46.256;7.534;2023-05-07T08:05:39;8.55;;;3.40;;
43837;SDS011;65998;46.256;7.534;2023-05-07T08:08:05;8.20;;;3.53;;
43837;SDS011;65998;46.256;7.534;2023-05-07T08:10:31;8.45;;;3.58;;
43837;SDS011;65998;46.256;7.534;2023-05-07T08:12:57;6.90;;;3.23;;
43837;SDS011;65998;46.256;7.534;2023-05-07T08:15:23;7.07;;;3.40;;
43837;SDS011;65998;46.256;7.534;2023-05-07T08:17:49;8.13;;;3.10;;
43837;SDS011;65998;46.256;7.534;2023-05-07T08:20:15;8.23;;;3.40;;
43837;SDS011;65998;46.256;7.534;2023-05-07T08:22:40;8.82;;;3.88;;
43837;SDS011;65998;46.256;7.534;2023-05-07T08:25:06;7.00;;;3.13;;
43837;SDS011;65998;46.256;7.534;2023-05-07T08:27:32;6.88;;;3.28;;
43837;SDS011;65998;46.256;7.534;2023-05-07T08:29:58;8.27;;;3.63;;
43837;SDS011;65998;46.256;7.534;2023-05-07T08:32:24;7.37;;;3.30;;
43837;SDS011;65998;46.256;7.534;2023-05-07T08:34:50;8.85;;;3.25;;
43837;SDS011;65998;46.256;7.534;2023-05-07T08:37:15;9.70;;;3.50;;
43837;SDS011;65998;46.256;7.534;2023-05-07T08:39:41;7.65;;;2.85;;
43837;SDS011;65998;46.256;7.534;2023-05-07T08:42:07;7.78;;;3.42;;
43837;SDS011;65998;46.256;7.534;2023-05-07T08:44:36;7.22;;;3.10;;
43837;SDS011;65998;46.256;7.534;2023-05-07T08:47:03;7.35;;;3.25;;
43837;SDS011;65998;46.256;7.534;2023-05-07T08:49:33;7.85;;;3.58;;
43837;SDS011;65998;46.256;7.534;2023-05-07T08:51:59;7.82;;;3.42;;
43837;SDS011;65998;46.256;7.534;2023-05-07T08:54:26;7.35;;;3.10;;
43837;SDS011;65998;46.256;7.534;2023-05-07T08:56:53;7.00;;;3.20;;
43837;SDS011;65998;46.256;7.534;2023-05-07T08:59:19;7.43;;;3.33;;
43837;SDS011;65998;46.256;7.534;2023-05-07T09:01:44;7.47;;;3.13;;
43837;SDS011;65998;46.256;7.534;2023-05-07T09:04:11;8.13;;;3.42;;
43837;SDS011;65998;46.256;7.534;2023-05-07T09:06:37;7.28;;;3.20;;
43837;SDS011;65998;46.256;7.534;2023-05-07T09:09:03;7.90;;;3.10;;
43837;SDS011;65998;46.256;7.534;2023-05-07T09:11:29;7.37;;;3.23;;
43837;SDS011;65998;46.256;7.534;2023-05-07T09:13:56;6.72;;;2.95;;
43837;SDS011;65998;46.256;7.534;2023-05-07T09:16:23;8.18;;;3.13;;
43837;SDS011;65998;46.256;7.534;2023-05-07T09:18:52;6.53;;;3.10;;
43837;SDS011;65998;46.256;7.534;2023-05-07T09:21:19;6.80;;;2.80;;
43837;SDS011;65998;46.256;7.534;2023-05-07T09:23:48;8.88;;;3.20;;
43837;SDS011;65998;46.256;7.534;2023-05-07T09:26:15;7.00;;;3.30;;
43837;SDS011;65998;46.256;7.534;2023-05-07T09:28:41;5.90;;;2.65;;
43837;SDS011;65998;46.256;7.534;2023-05-07T09:31:07;6.95;;;3.15;;
43837;SDS011;65998;46.256;7.534;2023-05-07T09:33:34;7.82;;;3.10;;
43837;SDS011;65998;46.256;7.534;2023-05-07T09:36:04;7.15;;;3.08;;
43837;SDS011;65998;46.256;7.534;2023-05-07T09:38:34;7.40;;;3.17;;
43837;SDS011;65998;46.256;7.534;2023-05-07T09:41:01;7.15;;;2.72;;
43837;SDS011;65998;46.256;7.534;2023-05-07T09:43:38;6.57;;;2.88;;
43837;SDS011;65998;46.256;7.534;2023-05-07T09:46:11;7.18;;;3.22;;
43837;SDS011;65998;46.256;7.534;2023-05-07T09:48:39;6.60;;;2.90;;
43837;SDS011;65998;46.256;7.534;2023-05-07T09:53:56;6.32;;;2.80;;
43837;SDS011;65998;46.256;7.534;2023-05-07T09:56:23;6.05;;;2.67;;
43837;SDS011;65998;46.256;7.534;2023-05-07T09:58:50;6.35;;;2.67;;
43837;SDS011;65998;46.256;7.534;2023-05-07T10:01:19;6.40;;;2.83;;
43837;SDS011;65998;46.256;7.534;2023-05-07T10:03:46;5.65;;;2.38;;
43837;SDS011;65998;46.256;7.534;2023-05-07T10:06:12;7.05;;;2.80;;
43837;SDS011;65998;46.256;7.534;2023-05-07T10:08:40;6.07;;;2.65;;
43837;SDS011;65998;46.256;7.534;2023-05-07T10:11:07;7.35;;;3.00;;
43837;SDS011;65998;46.256;7.534;2023-05-07T10:13:35;5.97;;;2.65;;
43837;SDS011;65998;46.256;7.534;2023-05-07T10:16:03;6.47;;;2.90;;
43837;SDS011;65998;46.256;7.534;2023-05-07T10:18:30;5.55;;;2.60;;
43837;SDS011;65998;46.256;7.534;2023-05-07T10:20:57;5.95;;;2.50;;
43837;SDS011;65998;46.256;7.534;2023-05-07T10:23:28;5.35;;;2.50;;
43837;SDS011;65998;46.256;7.534;2023-05-07T10:25:56;6.50;;;2.47;;
43837;SDS011;65998;46.256;7.534;2023-05-07T10:28:24;5.70;;;2.70;;
43837;SDS011;65998;46.256;7.534;2023-05-07T10:33:36;6.05;;;2.92;;
43837;SDS011;65998;46.256;7.534;2023-05-07T10:36:04;6.25;;;2.80;;
43837;SDS011;65998;46.256;7.534;2023-05-07T10:38:31;5.90;;;2.58;;
43837;SDS011;65998;46.256;7.534;2023-05-07T10:40:58;6.45;;;2.53;;
43837;SDS011;65998;46.256;7.534;2023-05-07T10:43:24;6.03;;;2.67;;
43837;SDS011;65998;46.256;7.534;2023-05-07T10:48:35;5.60;;;2.60;;
43837;SDS011;65998;46.256;7.534;2023-05-07T10:51:26;6.78;;;2.90;;
43837;SDS011;65998;46.256;7.534;2023-05-07T10:56:37;5.47;;;2.50;;
43837;SDS011;65998;46.256;7.534;2023-05-07T11:04:19;5.25;;;2.20;;
43837;SDS011;65998;46.256;7.534;2023-05-07T11:12:17;5.93;;;2.38;;
43837;SDS011;65998;46.256;7.534;2023-05-07T11:15:04;5.82;;;2.53;;
43837;SDS011;65998;46.256;7.534;2023-05-07T11:17:31;5.20;;;2.42;;
43837;SDS011;65998;46.256;7.534;2023-05-07T11:19:58;6.05;;;2.40;;
43837;SDS011;65998;46.256;7.534;2023-05-07T11:25:02;6.13;;;2.40;;
43837;SDS011;65998;46.256;7.534;2023-05-07T11:27:28;5.00;;;2.20;;
43837;SDS011;65998;46.256;7.534;2023-05-07T11:29:55;5.00;;;2.35;;
43837;SDS011;65998;46.256;7.534;2023-05-07T11:32:24;4.87;;;2.00;;
43837;SDS011;65998;46.256;7.534;2023-05-07T11:34:52;5.60;;;2.10;;
43837;SDS011;65998;46.256;7.534;2023-05-07T11:37:22;5.43;;;2.15;;
43837;SDS011;65998;46.256;7.534;2023-05-07T11:39:49;4.72;;;2.22;;
43837;SDS011;65998;46.256;7.534;2023-05-07T11:42:35;4.82;;;2.25;;
43837;SDS011;65998;46.256;7.534;2023-05-07T11:45:05;4.30;;;1.83;;
43837;SDS011;65998;46.256;7.534;2023-05-07T11:47:31;5.18;;;2.15;;
43837;SDS011;65998;46.256;7.534;2023-05-07T11:50:02;5.30;;;2.05;;
43837;SDS011;65998;46.256;7.534;2023-05-07T11:52:31;5.47;;;2.20;;
43837;SDS011;65998;46.256;7.534;2023-05-07T11:54:58;5.55;;;2.30;;
43837;SDS011;65998;46.256;7.534;2023-05-07T11:57:25;5.80;;;2.23;;
43837;SDS011;65998;46.256;7.534;2023-05-07T11:59:55;4.57;;;2.05;;
43837;SDS011;65998;46.256;7.534;2023-05-07T12:02:21;5.03;;;1.90;;
43837;SDS011;65998;46.256;7.534;2023-05-07T12:04:47;5.82;;;2.22;;
43837;SDS011;65998;46.256;7.534;2023-05-07T12:07:16;4.93;;;2.23;;
43837;SDS011;65998;46.256;7.534;2023-05-07T12:09:42;4.75;;;2.13;;
43837;SDS011;65998;46.256;7.534;2023-05-07T12:12:09;5.03;;;2.05;;
43837;SDS011;65998;46.256;7.534;2023-05-07T12:14:39;4.57;;;1.98;;
43837;SDS011;65998;46.256;7.534;2023-05-07T12:17:05;5.25;;;2.10;;
43837;SDS011;65998;46.256;7.534;2023-05-07T12:19:33;4.68;;;2.00;;
43837;SDS011;65998;46.256;7.534;2023-05-07T12:22:01;5.07;;;2.00;;
43837;SDS011;65998;46.256;7.534;2023-05-07T12:24:28;4.45;;;1.80;;
43837;SDS011;65998;46.256;7.534;2023-05-07T12:26:54;4.72;;;2.03;;
43837;SDS011;65998;46.256;7.534;2023-05-07T12:29:23;4.63;;;1.80;;
43837;SDS011;65998;46.256;7.534;2023-05-07T12:31:49;4.88;;;1.98;;
43837;SDS011;65998;46.256;7.534;2023-05-07T12:34:16;5.20;;;2.08;;
43837;SDS011;65998;46.256;7.534;2023-05-07T12:36:41;5.68;;;2.10;;
43837;SDS011;65998;46.256;7.534;2023-05-07T12:39:08;4.50;;;1.90;;
43837;SDS011;65998;46.256;7.534;2023-05-07T12:41:53;4.45;;;1.90;;
43837;SDS011;65998;46.256;7.534;2023-05-07T12:44:23;5.25;;;2.17;;
43837;SDS011;65998;46.256;7.534;2023-05-07T12:46:58;3.95;;;2.00;;
43837;SDS011;65998;46.256;7.534;2023-05-07T12:49:27;4.68;;;2.03;;
43837;SDS011;65998;46.256;7.534;2023-05-07T12:51:53;4.05;;;1.98;;
43837;SDS011;65998;46.256;7.534;2023-05-07T12:54:32;4.15;;;1.92;;
43837;SDS011;65998;46.256;7.534;2023-05-07T12:57:05;4.55;;;2.00;;
43837;SDS011;65998;46.256;7.534;2023-05-07T12:59:36;5.05;;;2.35;;
43837;SDS011;65998;46.256;7.534;2023-05-07T13:02:04;4.90;;;1.90;;
43837;SDS011;65998;46.256;7.534;2023-05-07T13:04:30;4.10;;;2.00;;
43837;SDS011;65998;46.256;7.534;2023-05-07T13:06:56;4.78;;;2.00;;
43837;SDS011;65998;46.256;7.534;2023-05-07T13:09:22;4.97;;;1.90;;
43837;SDS011;65998;46.256;7.534;2023-05-07T13:11:48;4.10;;;1.85;;
43837;SDS011;65998;46.256;7.534;2023-05-07T13:14:14;4.63;;;2.00;;
43837;SDS011;65998;46.256;7.534;2023-05-07T13:16:40;3.95;;;1.83;;
43837;SDS011;65998;46.256;7.534;2023-05-07T13:19:06;3.80;;;1.90;;
43837;SDS011;65998;46.256;7.534;2023-05-07T13:21:31;4.10;;;1.63;;
43837;SDS011;65998;46.256;7.534;2023-05-07T13:23:57;4.68;;;2.03;;
43837;SDS011;65998;46.256;7.534;2023-05-07T13:26:24;3.90;;;1.77;;
43837;SDS011;65998;46.256;7.534;2023-05-07T13:28:50;3.90;;;1.65;;
43837;SDS011;65998;46.256;7.534;2023-05-07T13:31:16;5.30;;;2.20;;
43837;SDS011;65998;46.256;7.534;2023-05-07T13:33:43;3.55;;;1.50;;
43837;SDS011;65998;46.256;7.534;2023-05-07T13:36:08;4.60;;;1.90;;
43837;SDS011;65998;46.256;7.534;2023-05-07T13:38:34;4.55;;;1.75;;
43837;SDS011;65998;46.256;7.534;2023-05-07T13:41:00;3.90;;;1.90;;
43837;SDS011;65998;46.256;7.534;2023-05-07T13:43:27;4.17;;;1.90;;
43837;SDS011;65998;46.256;7.534;2023-05-07T13:45:52;3.88;;;1.55;;
43837;SDS011;65998;46.256;7.534;2023-05-07T13:48:18;4.57;;;1.90;;
43837;SDS011;65998;46.256;7.534;2023-05-07T13:50:44;4.20;;;1.70;;
43837;SDS011;65998;46.256;7.534;2023-05-07T13:53:10;4.05;;;1.63;;
43837;SDS011;65998;46.256;7.534;2023-05-07T13:55:36;3.93;;;1.67;;
43837;SDS011;65998;46.256;7.534;2023-05-07T13:58:02;4.47;;;1.80;;
43837;SDS011;65998;46.256;7.534;2023-05-07T14:00:28;3.45;;;1.80;;
43837;SDS011;65998;46.256;7.534;2023-05-07T14:02:55;3.78;;;1.77;;
43837;SDS011;65998;46.256;7.534;2023-05-07T14:05:22;4.20;;;1.70;;
43837;SDS011;65998;46.256;7.534;2023-05-07T14:07:48;3.97;;;1.92;;
43837;SDS011;65998;46.256;7.534;2023-05-07T14:10:16;4.65;;;1.70;;
43837;SDS011;65998;46.256;7.534;2023-05-07T14:12:43;4.50;;;1.90;;
43837;SDS011;65998;46.256;7.534;2023-05-07T14:15:10;4.32;;;1.80;;
43837;SDS011;65998;46.256;7.534;2023-05-07T14:17:37;3.95;;;1.63;;
43837;SDS011;65998;46.256;7.534;2023-05-07T14:20:03;4.63;;;1.67;;
43837;SDS011;65998;46.256;7.534;2023-05-07T14:22:30;4.70;;;2.03;;
43837;SDS011;65998;46.256;7.534;2023-05-07T14:24:55;4.20;;;1.67;;
43837;SDS011;65998;46.256;7.534;2023-05-07T14:27:21;3.45;;;1.60;;
43837;SDS011;65998;46.256;7.534;2023-05-07T14:29:47;3.50;;;1.57;;
43837;SDS011;65998;46.256;7.534;2023-05-07T14:32:13;4.47;;;1.50;;
43837;SDS011;65998;46.256;7.534;2023-05-07T14:34:38;3.85;;;1.73;;
43837;SDS011;65998;46.256;7.534;2023-05-07T14:37:04;3.58;;;1.55;;
43837;SDS011;65998;46.256;7.534;2023-05-07T14:39:30;3.55;;;1.70;;
43837;SDS011;65998;46.256;7.534;2023-05-07T14:41:56;4.00;;;1.60;;
43837;SDS011;65998;46.256;7.534;2023-05-07T14:44:22;3.97;;;1.80;;
43837;SDS011;65998;46.256;7.534;2023-05-07T14:46:48;3.78;;;1.63;;
43837;SDS011;65998;46.256;7.534;2023-05-07T14:49:14;3.80;;;1.80;;
43837;SDS011;65998;46.256;7.534;2023-05-07T14:51:40;3.10;;;1.50;;
43837;SDS011;65998;46.256;7.534;2023-05-07T14:54:06;3.97;;;1.50;;
43837;SDS011;65998;46.256;7.534;2023-05-07T14:56:32;3.92;;;1.65;;